YBCG

Gold Coast Airport

Gold Coast, Australia
TAF YBCG 221703Z 2218/2318 23005KT CAVOK FM230100 03010KT CAVOK FM230800 27006KT CAVOK
Issued Valid From Valid To
Jul-22 @ 17:03 UTC
(3 hours ago)
Jul-22 @ 18:00 UTC
(2 hours ago)
Jul-23 @ 18:00 UTC
(in 22 hours)
Jul-22 @ 18:00 to Jul-23 @ 01:00
TAF YBCG 221703Z 2218/2318 23005KT CAVOK
Wind Visibility Clouds Conditions
230° at 5 knots 10,000+ meters
  • No significant clouds
From Jul-23 @ 01:00 to Jul-23 @ 08:00
FM230100 03010KT CAVOK
Wind Visibility Clouds Conditions
30° at 10 knots 10,000+ meters
  • No significant clouds
From Jul-23 @ 08:00 to Jul-23 @ 18:00
FM230800 27006KT CAVOK
Wind Visibility Clouds Conditions
270° at 6 knots 10,000+ meters
  • No significant clouds
TAF YBCG 221703Z 2218/2318 23005KT CAVOK FM230100 03010KT CAVOK FM230800 27006KT CAVOK
Issued Jul-22 @ 17:03 UTC
(3 hours ago)
Valid From Jul-22 @ 18:00 UTC
(2 hours ago)
Valid To Jul-23 @ 18:00 UTC
(in 22 hours)
Jul-22 @ 18:00 - Jul-23 @ 01:00
Wind Visibility
230° at 5 knots 10,000+ meters
Clouds
  • No significant clouds
Conditions
From Jul-23 @ 01:00 - Jul-23 @ 08:00
Wind Visibility
30° at 10 knots 10,000+ meters
Clouds
  • No significant clouds
Conditions
From Jul-23 @ 08:00 - Jul-23 @ 18:00
Wind Visibility
270° at 6 knots 10,000+ meters
Clouds
  • No significant clouds
Conditions